sensor_id;sensor_type;location;lat;lon;timestamp;P1;durP1;ratioP1;P2;durP2;ratioP2
40609;SDS011;26316;55.976;37.140;2022-10-29T00:01:44;2.45;;;2.10;;
40609;SDS011;26316;55.976;37.140;2022-10-29T00:04:10;2.00;;;1.90;;
40609;SDS011;26316;55.976;37.140;2022-10-29T00:06:36;2.30;;;2.10;;
40609;SDS011;26316;55.976;37.140;2022-10-29T00:09:02;2.53;;;2.08;;
40609;SDS011;26316;55.976;37.140;2022-10-29T00:11:28;1.85;;;1.75;;
40609;SDS011;26316;55.976;37.140;2022-10-29T00:13:55;4.43;;;2.25;;
40609;SDS011;26316;55.976;37.140;2022-10-29T00:16:24;2.42;;;1.80;;
40609;SDS011;26316;55.976;37.140;2022-10-29T00:18:54;2.30;;;1.83;;
40609;SDS011;26316;55.976;37.140;2022-10-29T00:21:23;2.40;;;2.17;;
40609;SDS011;26316;55.976;37.140;2022-10-29T00:23:50;2.63;;;1.80;;
40609;SDS011;26316;55.976;37.140;2022-10-29T00:26:18;2.13;;;1.90;;
40609;SDS011;26316;55.976;37.140;2022-10-29T00:28:45;1.92;;;1.83;;
40609;SDS011;26316;55.976;37.140;2022-10-29T00:31:12;1.92;;;1.77;;
40609;SDS011;26316;55.976;37.140;2022-10-29T00:33:40;1.77;;;1.67;;
40609;SDS011;26316;55.976;37.140;2022-10-29T00:36:06;2.30;;;2.13;;
40609;SDS011;26316;55.976;37.140;2022-10-29T00:38:42;2.08;;;1.80;;
40609;SDS011;26316;55.976;37.140;2022-10-29T00:41:12;2.30;;;2.10;;
40609;SDS011;26316;55.976;37.140;2022-10-29T00:43:40;2.15;;;1.90;;
40609;SDS011;26316;55.976;37.140;2022-10-29T00:46:08;4.32;;;1.80;;
40609;SDS011;26316;55.976;37.140;2022-10-29T00:48:55;1.90;;;1.80;;
40609;SDS011;26316;55.976;37.140;2022-10-29T00:51:23;3.97;;;2.13;;
40609;SDS011;26316;55.976;37.140;2022-10-29T00:53:54;2.40;;;1.80;;
40609;SDS011;26316;55.976;37.140;2022-10-29T00:56:22;1.80;;;1.67;;
40609;SDS011;26316;55.976;37.140;2022-10-29T00:58:49;1.70;;;1.60;;
40609;SDS011;26316;55.976;37.140;2022-10-29T01:01:16;2.72;;;1.90;;
40609;SDS011;26316;55.976;37.140;2022-10-29T01:03:42;2.00;;;1.90;;
40609;SDS011;26316;55.976;37.140;2022-10-29T01:06:08;1.73;;;1.63;;
40609;SDS011;26316;55.976;37.140;2022-10-29T01:08:35;2.08;;;1.77;;
40609;SDS011;26316;55.976;37.140;2022-10-29T01:47:04;2.22;;;2.03;;
40609;SDS011;26316;55.976;37.140;2022-10-29T01:49:37;4.60;;;2.38;;
40609;SDS011;26316;55.976;37.140;2022-10-29T01:52:05;2.35;;;2.15;;
40609;SDS011;26316;55.976;37.140;2022-10-29T01:54:32;2.20;;;2.00;;
40609;SDS011;26316;55.976;37.140;2022-10-29T01:56:58;2.53;;;2.00;;
40609;SDS011;26316;55.976;37.140;2022-10-29T01:59:28;1.70;;;1.60;;
40609;SDS011;26316;55.976;37.140;2022-10-29T02:04:59;2.72;;;1.90;;
40609;SDS011;26316;55.976;37.140;2022-10-29T02:10:19;1.88;;;1.77;;
40609;SDS011;26316;55.976;37.140;2022-10-29T02:12:51;1.98;;;1.67;;
40609;SDS011;26316;55.976;37.140;2022-10-29T02:17:48;2.60;;;1.92;;
40609;SDS011;26316;55.976;37.140;2022-10-29T02:20:15;2.00;;;1.90;;
40609;SDS011;26316;55.976;37.140;2022-10-29T02:22:41;2.10;;;1.95;;
40609;SDS011;26316;55.976;37.140;2022-10-29T02:25:07;2.63;;;2.42;;
40609;SDS011;26316;55.976;37.140;2022-10-29T02:27:34;3.33;;;2.30;;
40609;SDS011;26316;55.976;37.140;2022-10-29T02:30:00;1.98;;;1.80;;
40609;SDS011;26316;55.976;37.140;2022-10-29T02:32:26;2.30;;;1.80;;
40609;SDS011;26316;55.976;37.140;2022-10-29T02:34:52;2.10;;;1.90;;
40609;SDS011;26316;55.976;37.140;2022-10-29T02:37:17;2.05;;;1.90;;
40609;SDS011;26316;55.976;37.140;2022-10-29T02:39:43;2.15;;;1.80;;
40609;SDS011;26316;55.976;37.140;2022-10-29T02:42:09;1.88;;;1.60;;
40609;SDS011;26316;55.976;37.140;2022-10-29T02:44:35;2.33;;;1.73;;
40609;SDS011;26316;55.976;37.140;2022-10-29T02:47:00;1.70;;;1.60;;
40609;SDS011;26316;55.976;37.140;2022-10-29T02:49:26;1.90;;;1.80;;
40609;SDS011;26316;55.976;37.140;2022-10-29T02:51:52;2.08;;;1.92;;
40609;SDS011;26316;55.976;37.140;2022-10-29T02:54:18;2.05;;;1.50;;
40609;SDS011;26316;55.976;37.140;2022-10-29T02:56:44;2.13;;;1.92;;
40609;SDS011;26316;55.976;37.140;2022-10-29T02:59:09;2.13;;;1.92;;
40609;SDS011;26316;55.976;37.140;2022-10-29T03:01:35;2.30;;;1.98;;
40609;SDS011;26316;55.976;37.140;2022-10-29T03:04:01;3.45;;;2.30;;
40609;SDS011;26316;55.976;37.140;2022-10-29T03:06:27;2.10;;;1.98;;
40609;SDS011;26316;55.976;37.140;2022-10-29T03:08:52;2.00;;;1.90;;
40609;SDS011;26316;55.976;37.140;2022-10-29T03:11:18;2.20;;;2.00;;
40609;SDS011;26316;55.976;37.140;2022-10-29T03:13:44;2.08;;;1.88;;
40609;SDS011;26316;55.976;37.140;2022-10-29T03:16:10;2.25;;;2.00;;
40609;SDS011;26316;55.976;37.140;2022-10-29T03:18:36;2.22;;;2.10;;
40609;SDS011;26316;55.976;37.140;2022-10-29T03:21:02;2.15;;;1.95;;
40609;SDS011;26316;55.976;37.140;2022-10-29T03:23:27;1.80;;;1.70;;
40609;SDS011;26316;55.976;37.140;2022-10-29T03:25:54;2.13;;;1.70;;
40609;SDS011;26316;55.976;37.140;2022-10-29T03:28:21;2.13;;;1.90;;
40609;SDS011;26316;55.976;37.140;2022-10-29T03:30:47;1.90;;;1.80;;
40609;SDS011;26316;55.976;37.140;2022-10-29T03:33:13;1.98;;;1.88;;
40609;SDS011;26316;55.976;37.140;2022-10-29T03:35:39;3.42;;;2.15;;
40609;SDS011;26316;55.976;37.140;2022-10-29T03:38:05;2.20;;;2.00;;
40609;SDS011;26316;55.976;37.140;2022-10-29T03:40:31;1.90;;;1.70;;
40609;SDS011;26316;55.976;37.140;2022-10-29T03:42:57;3.13;;;1.98;;
40609;SDS011;26316;55.976;37.140;2022-10-29T03:45:23;2.78;;;2.30;;
40609;SDS011;26316;55.976;37.140;2022-10-29T03:47:48;2.17;;;2.00;;
40609;SDS011;26316;55.976;37.140;2022-10-29T03:50:14;2.28;;;2.03;;
40609;SDS011;26316;55.976;37.140;2022-10-29T03:52:40;2.30;;;2.10;;
40609;SDS011;26316;55.976;37.140;2022-10-29T03:55:06;1.98;;;1.80;;
40609;SDS011;26316;55.976;37.140;2022-10-29T03:57:32;5.85;;;2.53;;
40609;SDS011;26316;55.976;37.140;2022-10-29T03:59:58;2.60;;;2.13;;
40609;SDS011;26316;55.976;37.140;2022-10-29T04:02:25;2.08;;;1.98;;
40609;SDS011;26316;55.976;37.140;2022-10-29T04:04:51;2.20;;;1.90;;
40609;SDS011;26316;55.976;37.140;2022-10-29T04:07:17;2.13;;;2.00;;
40609;SDS011;26316;55.976;37.140;2022-10-29T04:09:43;4.00;;;1.90;;
40609;SDS011;26316;55.976;37.140;2022-10-29T04:12:09;2.40;;;2.00;;
40609;SDS011;26316;55.976;37.140;2022-10-29T04:14:34;3.00;;;2.05;;
40609;SDS011;26316;55.976;37.140;2022-10-29T04:17:00;3.58;;;2.10;;
40609;SDS011;26316;55.976;37.140;2022-10-29T04:19:26;2.42;;;1.83;;
40609;SDS011;26316;55.976;37.140;2022-10-29T04:21:52;3.22;;;2.10;;
40609;SDS011;26316;55.976;37.140;2022-10-29T04:24:18;6.15;;;1.95;;
40609;SDS011;26316;55.976;37.140;2022-10-29T04:26:43;5.95;;;1.45;;
40609;SDS011;26316;55.976;37.140;2022-10-29T04:29:10;3.75;;;1.27;;
40609;SDS011;26316;55.976;37.140;2022-10-29T04:31:36;3.88;;;1.35;;
40609;SDS011;26316;55.976;37.140;2022-10-29T04:34:02;1.52;;;1.40;;
40609;SDS011;26316;55.976;37.140;2022-10-29T04:36:28;5.82;;;1.50;;
40609;SDS011;26316;55.976;37.140;2022-10-29T04:38:53;3.90;;;1.73;;
40609;SDS011;26316;55.976;37.140;2022-10-29T04:41:19;3.63;;;1.52;;
40609;SDS011;26316;55.976;37.140;2022-10-29T04:43:45;2.22;;;2.03;;
40609;SDS011;26316;55.976;37.140;2022-10-29T04:46:11;6.93;;;1.83;;
40609;SDS011;26316;55.976;37.140;2022-10-29T04:48:37;3.65;;;1.90;;
40609;SDS011;26316;55.976;37.140;2022-10-29T04:51:03;4.68;;;1.85;;
40609;SDS011;26316;55.976;37.140;2022-10-29T04:53:28;2.83;;;1.90;;
40609;SDS011;26316;55.976;37.140;2022-10-29T04:55:58;3.10;;;1.83;;
40609;SDS011;26316;55.976;37.140;2022-10-29T04:58:29;5.05;;;2.30;;
40609;SDS011;26316;55.976;37.140;2022-10-29T05:01:02;10.40;;;4.00;;
40609;SDS011;26316;55.976;37.140;2022-10-29T05:03:29;11.40;;;3.50;;
40609;SDS011;26316;55.976;37.140;2022-10-29T05:05:55;13.55;;;4.47;;
40609;SDS011;26316;55.976;37.140;2022-10-29T05:08:21;15.30;;;5.32;;
40609;SDS011;26316;55.976;37.140;2022-10-29T05:10:47;16.42;;;5.10;;
40609;SDS011;26316;55.976;37.140;2022-10-29T05:13:13;19.25;;;5.45;;
40609;SDS011;26316;55.976;37.140;2022-10-29T05:15:39;15.40;;;4.75;;
40609;SDS011;26316;55.976;37.140;2022-10-29T05:18:05;19.27;;;5.95;;
40609;SDS011;26316;55.976;37.140;2022-10-29T05:20:31;31.83;;;8.48;;
40609;SDS011;26316;55.976;37.140;2022-10-29T05:23:07;34.13;;;8.80;;
40609;SDS011;26316;55.976;37.140;2022-10-29T05:25:35;47.67;;;11.27;;
40609;SDS011;26316;55.976;37.140;2022-10-29T05:28:02;33.58;;;10.52;;
40609;SDS011;26316;55.976;37.140;2022-10-29T05:30:29;31.33;;;7.90;;
40609;SDS011;26316;55.976;37.140;2022-10-29T05:32:55;25.75;;;7.38;;
40609;SDS011;26316;55.976;37.140;2022-10-29T05:35:20;22.50;;;6.22;;
40609;SDS011;26316;55.976;37.140;2022-10-29T05:37:53;11.88;;;5.07;;
40609;SDS011;26316;55.976;37.140;2022-10-29T05:40:20;12.88;;;4.65;;
40609;SDS011;26316;55.976;37.140;2022-10-29T05:42:46;10.00;;;4.00;;
40609;SDS011;26316;55.976;37.140;2022-10-29T05:45:12;10.48;;;4.40;;
40609;SDS011;26316;55.976;37.140;2022-10-29T05:47:38;14.13;;;3.78;;
40609;SDS011;26316;55.976;37.140;2022-10-29T05:50:04;6.20;;;3.10;;
40609;SDS011;26316;55.976;37.140;2022-10-29T05:52:30;9.02;;;3.10;;
40609;SDS011;26316;55.976;37.140;2022-10-29T05:54:56;5.80;;;3.67;;
40609;SDS011;26316;55.976;37.140;2022-10-29T05:57:22;9.23;;;3.85;;
40609;SDS011;26316;55.976;37.140;2022-10-29T05:59:47;6.22;;;3.35;;
40609;SDS011;26316;55.976;37.140;2022-10-29T06:02:13;7.15;;;3.28;;
40609;SDS011;26316;55.976;37.140;2022-10-29T06:04:39;6.28;;;3.13;;
40609;SDS011;26316;55.976;37.140;2022-10-29T06:07:05;5.93;;;2.72;;
40609;SDS011;26316;55.976;37.140;2022-10-29T06:09:30;3.65;;;2.88;;
40609;SDS011;26316;55.976;37.140;2022-10-29T06:11:56;5.47;;;2.97;;
40609;SDS011;26316;55.976;37.140;2022-10-29T06:14:22;4.57;;;3.05;;
40609;SDS011;26316;55.976;37.140;2022-10-29T06:16:48;4.30;;;2.88;;
40609;SDS011;26316;55.976;37.140;2022-10-29T06:19:13;4.18;;;2.90;;
40609;SDS011;26316;55.976;37.140;2022-10-29T06:21:39;6.50;;;3.00;;
40609;SDS011;26316;55.976;37.140;2022-10-29T06:24:05;5.25;;;2.55;;
40609;SDS011;26316;55.976;37.140;2022-10-29T06:26:31;5.70;;;2.95;;
40609;SDS011;26316;55.976;37.140;2022-10-29T06:28:58;10.80;;;2.50;;
40609;SDS011;26316;55.976;37.140;2022-10-29T06:31:24;5.65;;;3.10;;
40609;SDS011;26316;55.976;37.140;2022-10-29T06:33:50;2.78;;;2.30;;
40609;SDS011;26316;55.976;37.140;2022-10-29T06:36:16;7.50;;;2.42;;
40609;SDS011;26316;55.976;37.140;2022-10-29T06:38:41;2.70;;;2.42;;
40609;SDS011;26316;55.976;37.140;2022-10-29T06:41:07;3.05;;;2.30;;
40609;SDS011;26316;55.976;37.140;2022-10-29T06:43:34;5.22;;;2.40;;
40609;SDS011;26316;55.976;37.140;2022-10-29T06:46:00;8.38;;;2.08;;
40609;SDS011;26316;55.976;37.140;2022-10-29T06:48:25;3.50;;;2.20;;
40609;SDS011;26316;55.976;37.140;2022-10-29T06:50:51;5.65;;;2.28;;
40609;SDS011;26316;55.976;37.140;2022-10-29T06:53:17;2.10;;;1.90;;
40609;SDS011;26316;55.976;37.140;2022-10-29T06:55:43;5.10;;;2.40;;
40609;SDS011;26316;55.976;37.140;2022-10-29T06:58:13;3.00;;;2.00;;
40609;SDS011;26316;55.976;37.140;2022-10-29T07:00:40;2.95;;;1.90;;
40609;SDS011;26316;55.976;37.140;2022-10-29T07:03:07;4.25;;;1.83;;
40609;SDS011;26316;55.976;37.140;2022-10-29T07:05:37;5.10;;;2.00;;
40609;SDS011;26316;55.976;37.140;2022-10-29T07:08:03;4.43;;;1.60;;
40609;SDS011;26316;55.976;37.140;2022-10-29T07:10:30;2.58;;;2.17;;
40609;SDS011;26316;55.976;37.140;2022-10-29T07:12:56;1.63;;;1.52;;
40609;SDS011;26316;55.976;37.140;2022-10-29T07:15:22;1.85;;;1.70;;
40609;SDS011;26316;55.976;37.140;2022-10-29T07:17:55;3.42;;;1.63;;
40609;SDS011;26316;55.976;37.140;2022-10-29T07:20:24;1.95;;;1.55;;
40609;SDS011;26316;55.976;37.140;2022-10-29T07:22:50;1.80;;;1.70;;
40609;SDS011;26316;55.976;37.140;2022-10-29T07:25:16;2.38;;;2.17;;
40609;SDS011;26316;55.976;37.140;2022-10-29T07:27:42;5.82;;;2.08;;
40609;SDS011;26316;55.976;37.140;2022-10-29T07:30:09;2.63;;;2.40;;
40609;SDS011;26316;55.976;37.140;2022-10-29T07:32:35;2.33;;;2.10;;
40609;SDS011;26316;55.976;37.140;2022-10-29T07:35:01;2.92;;;2.60;;
40609;SDS011;26316;55.976;37.140;2022-10-29T07:37:29;3.15;;;1.98;;
40609;SDS011;26316;55.976;37.140;2022-10-29T07:39:54;2.08;;;1.88;;
40609;SDS011;26316;55.976;37.140;2022-10-29T07:42:20;3.72;;;2.35;;
40609;SDS011;26316;55.976;37.140;2022-10-29T07:44:46;3.53;;;2.22;;
40609;SDS011;26316;55.976;37.140;2022-10-29T07:47:12;3.80;;;2.50;;
40609;SDS011;26316;55.976;37.140;2022-10-29T07:49:38;2.75;;;2.08;;
40609;SDS011;26316;55.976;37.140;2022-10-29T07:52:03;2.65;;;2.20;;
40609;SDS011;26316;55.976;37.140;2022-10-29T07:54:29;2.58;;;2.10;;
40609;SDS011;26316;55.976;37.140;2022-10-29T07:56:55;2.75;;;2.50;;
40609;SDS011;26316;55.976;37.140;2022-10-29T07:59:21;4.20;;;2.22;;
40609;SDS011;26316;55.976;37.140;2022-10-29T08:01:46;6.82;;;2.47;;
40609;SDS011;26316;55.976;37.140;2022-10-29T08:04:12;2.40;;;2.17;;
40609;SDS011;26316;55.976;37.140;2022-10-29T08:06:38;3.40;;;2.08;;
40609;SDS011;26316;55.976;37.140;2022-10-29T08:09:04;4.35;;;2.10;;
40609;SDS011;26316;55.976;37.140;2022-10-29T08:11:30;2.35;;;2.15;;
40609;SDS011;26316;55.976;37.140;2022-10-29T08:13:57;3.35;;;2.28;;
40609;SDS011;26316;55.976;37.140;2022-10-29T08:16:23;2.20;;;2.00;;
40609;SDS011;26316;55.976;37.140;2022-10-29T08:18:49;3.92;;;2.22;;
40609;SDS011;26316;55.976;37.140;2022-10-29T08:21:15;1.85;;;1.75;;
40609;SDS011;26316;55.976;37.140;2022-10-29T08:23:41;3.97;;;2.53;;
40609;SDS011;26316;55.976;37.140;2022-10-29T08:26:06;3.25;;;2.78;;
40609;SDS011;26316;55.976;37.140;2022-10-29T08:28:32;2.70;;;2.28;;
40609;SDS011;26316;55.976;37.140;2022-10-29T08:30:58;2.95;;;2.67;;
40609;SDS011;26316;55.976;37.140;2022-10-29T08:33:23;2.53;;;2.25;;
40609;SDS011;26316;55.976;37.140;2022-10-29T08:35:49;5.53;;;2.60;;
40609;SDS011;26316;55.976;37.140;2022-10-29T08:38:15;3.55;;;2.50;;
40609;SDS011;26316;55.976;37.140;2022-10-29T08:43:29;4.20;;;2.67;;
40609;SDS011;26316;55.976;37.140;2022-10-29T08:46:03;3.17;;;2.35;;
40609;SDS011;26316;55.976;37.140;2022-10-29T08:51:00;3.10;;;2.40;;
40609;SDS011;26316;55.976;37.140;2022-10-29T08:53:37;2.83;;;2.45;;
40609;SDS011;26316;55.976;37.140;2022-10-29T08:56:06;2.90;;;2.40;;
40609;SDS011;26316;55.976;37.140;2022-10-29T08:58:58;2.70;;;2.50;;
40609;SDS011;26316;55.976;37.140;2022-10-29T09:01:28;2.40;;;2.20;;
40609;SDS011;26316;55.976;37.140;2022-10-29T09:03:54;3.28;;;2.80;;
40609;SDS011;26316;55.976;37.140;2022-10-29T09:11:52;2.33;;;2.13;;
40609;SDS011;26316;55.976;37.140;2022-10-29T09:14:28;2.80;;;2.60;;
40609;SDS011;26316;55.976;37.140;2022-10-29T09:25:10;3.03;;;2.83;;
40609;SDS011;26316;55.976;37.140;2022-10-29T09:30:50;2.97;;;2.72;;
40609;SDS011;26316;55.976;37.140;2022-10-29T09:33:38;2.00;;;1.63;;
40609;SDS011;26316;55.976;37.140;2022-10-29T09:36:10;2.72;;;2.40;;
40609;SDS011;26316;55.976;37.140;2022-10-29T09:41:25;2.42;;;2.22;;
40609;SDS011;26316;55.976;37.140;2022-10-29T09:54:22;2.13;;;2.03;;
40609;SDS011;26316;55.976;37.140;2022-10-29T09:56:48;3.10;;;2.80;;
40609;SDS011;26316;55.976;37.140;2022-10-29T09:59:20;3.08;;;2.20;;
40609;SDS011;26316;55.976;37.140;2022-10-29T10:01:51;4.97;;;2.17;;
40609;SDS011;26316;55.976;37.140;2022-10-29T10:04:32;3.05;;;2.50;;
40609;SDS011;26316;55.976;37.140;2022-10-29T10:07:06;2.20;;;2.00;;
40609;SDS011;26316;55.976;37.140;2022-10-29T10:09:48;6.07;;;2.75;;
40609;SDS011;26316;55.976;37.140;2022-10-29T10:12:19;2.78;;;2.47;;
40609;SDS011;26316;55.976;37.140;2022-10-29T10:14:47;3.55;;;2.45;;
40609;SDS011;26316;55.976;37.140;2022-10-29T10:17:13;3.42;;;2.50;;
40609;SDS011;26316;55.976;37.140;2022-10-29T10:19:43;2.53;;;2.40;;
40609;SDS011;26316;55.976;37.140;2022-10-29T10:22:17;4.00;;;3.00;;
40609;SDS011;26316;55.976;37.140;2022-10-29T10:24:45;2.70;;;2.50;;
40609;SDS011;26316;55.976;37.140;2022-10-29T10:27:29;3.05;;;2.75;;
40609;SDS011;26316;55.976;37.140;2022-10-29T10:30:12;4.30;;;2.63;;
40609;SDS011;26316;55.976;37.140;2022-10-29T10:32:40;4.07;;;2.40;;
40609;SDS011;26316;55.976;37.140;2022-10-29T10:37:54;4.00;;;2.35;;
40609;SDS011;26316;55.976;37.140;2022-10-29T10:40:21;5.07;;;3.30;;
40609;SDS011;26316;55.976;37.140;2022-10-29T10:42:49;5.15;;;3.35;;
40609;SDS011;26316;55.976;37.140;2022-10-29T10:45:24;5.20;;;3.60;;
40609;SDS011;26316;55.976;37.140;2022-10-29T10:47:52;4.28;;;3.05;;
40609;SDS011;26316;55.976;37.140;2022-10-29T10:50:25;4.53;;;2.78;;
40609;SDS011;26316;55.976;37.140;2022-10-29T10:53:01;7.03;;;4.43;;
40609;SDS011;26316;55.976;37.140;2022-10-29T10:55:33;4.65;;;3.75;;
40609;SDS011;26316;55.976;37.140;2022-10-29T10:58:08;4.15;;;3.65;;
40609;SDS011;26316;55.976;37.140;2022-10-29T11:00:53;4.13;;;3.58;;
40609;SDS011;26316;55.976;37.140;2022-10-29T11:11:06;3.42;;;3.13;;
40609;SDS011;26316;55.976;37.140;2022-10-29T11:13:35;4.30;;;3.90;;
40609;SDS011;26316;55.976;37.140;2022-10-29T11:16:27;4.37;;;3.97;;
40609;SDS011;26316;55.976;37.140;2022-10-29T11:19:00;4.43;;;4.00;;
40609;SDS011;26316;55.976;37.140;2022-10-29T11:21:41;4.20;;;3.53;;
40609;SDS011;26316;55.976;37.140;2022-10-29T11:27:19;4.18;;;3.78;;
40609;SDS011;26316;55.976;37.140;2022-10-29T11:32:12;4.68;;;3.75;;
40609;SDS011;26316;55.976;37.140;2022-10-29T11:35:03;5.13;;;3.53;;
40609;SDS011;26316;55.976;37.140;2022-10-29T11:40:36;4.60;;;4.00;;
40609;SDS011;26316;55.976;37.140;2022-10-29T11:43:03;5.00;;;3.88;;
40609;SDS011;26316;55.976;37.140;2022-10-29T11:48:21;6.38;;;4.05;;
40609;SDS011;26316;55.976;37.140;2022-10-29T11:51:07;3.90;;;3.58;;
40609;SDS011;26316;55.976;37.140;2022-10-29T12:13:00;6.75;;;3.95;;
40609;SDS011;26316;55.976;37.140;2022-10-29T12:34:07;8.13;;;3.93;;
40609;SDS011;26316;55.976;37.140;2022-10-29T12:36:43;12.27;;;4.40;;
40609;SDS011;26316;55.976;37.140;2022-10-29T12:39:36;11.87;;;4.80;;
40609;SDS011;26316;55.976;37.140;2022-10-29T12:42:11;9.63;;;4.95;;
40609;SDS011;26316;55.976;37.140;2022-10-29T12:48:00;7.20;;;4.63;;
40609;SDS011;26316;55.976;37.140;2022-10-29T12:50:43;16.20;;;4.40;;
40609;SDS011;26316;55.976;37.140;2022-10-29T12:53:29;10.82;;;4.25;;
40609;SDS011;26316;55.976;37.140;2022-10-29T12:56:02;13.05;;;4.80;;
40609;SDS011;26316;55.976;37.140;2022-10-29T13:11:56;7.82;;;4.90;;
40609;SDS011;26316;55.976;37.140;2022-10-29T13:14:36;7.60;;;5.13;;
40609;SDS011;26316;55.976;37.140;2022-10-29T13:17:51;5.80;;;4.50;;
40609;SDS011;26316;55.976;37.140;2022-10-29T13:20:03;7.25;;;4.65;;
40609;SDS011;26316;55.976;37.140;2022-10-29T13:22:33;7.95;;;4.90;;
40609;SDS011;26316;55.976;37.140;2022-10-29T13:30:38;5.88;;;5.22;;
40609;SDS011;26316;55.976;37.140;2022-10-29T13:34:05;7.85;;;5.60;;
40609;SDS011;26316;55.976;37.140;2022-10-29T13:38:45;10.52;;;5.53;;
40609;SDS011;26316;55.976;37.140;2022-10-29T13:41:34;6.10;;;5.28;;
40609;SDS011;26316;55.976;37.140;2022-10-29T13:44:21;7.97;;;5.43;;
40609;SDS011;26316;55.976;37.140;2022-10-29T13:47:01;7.60;;;5.10;;
40609;SDS011;26316;55.976;37.140;2022-10-29T13:49:29;6.32;;;3.70;;
40609;SDS011;26316;55.976;37.140;2022-10-29T13:51:57;6.40;;;3.50;;
40609;SDS011;26316;55.976;37.140;2022-10-29T14:10:35;3.55;;;2.83;;
40609;SDS011;26316;55.976;37.140;2022-10-29T14:18:27;5.32;;;3.42;;
40609;SDS011;26316;55.976;37.140;2022-10-29T14:20:58;4.35;;;3.33;;
40609;SDS011;26316;55.976;37.140;2022-10-29T14:23:25;2.97;;;2.65;;
40609;SDS011;26316;55.976;37.140;2022-10-29T14:25:53;3.05;;;2.70;;
40609;SDS011;26316;55.976;37.140;2022-10-29T14:28:26;4.32;;;3.10;;
40609;SDS011;26316;55.976;37.140;2022-10-29T14:33:37;3.78;;;2.55;;
40609;SDS011;26316;55.976;37.140;2022-10-29T14:36:11;4.55;;;2.58;;
40609;SDS011;26316;55.976;37.140;2022-10-29T14:38:42;4.90;;;3.00;;
40609;SDS011;26316;55.976;37.140;2022-10-29T14:41:10;3.35;;;3.03;;
40609;SDS011;26316;55.976;37.140;2022-10-29T14:43:36;2.80;;;2.50;;
40609;SDS011;26316;55.976;37.140;2022-10-29T14:46:10;2.90;;;2.65;;
40609;SDS011;26316;55.976;37.140;2022-10-29T14:48:51;2.85;;;2.63;;
40609;SDS011;26316;55.976;37.140;2022-10-29T14:51:25;4.95;;;3.10;;
40609;SDS011;26316;55.976;37.140;2022-10-29T14:53:52;4.07;;;3.13;;
40609;SDS011;26316;55.976;37.140;2022-10-29T14:56:20;4.70;;;2.60;;
40609;SDS011;26316;55.976;37.140;2022-10-29T14:58:49;4.75;;;3.00;;
40609;SDS011;26316;55.976;37.140;2022-10-29T15:01:15;2.55;;;2.35;;
40609;SDS011;26316;55.976;37.140;2022-10-29T15:03:44;3.45;;;2.58;;
40609;SDS011;26316;55.976;37.140;2022-10-29T15:06:15;2.90;;;2.53;;
40609;SDS011;26316;55.976;37.140;2022-10-29T15:08:43;2.40;;;2.20;;
40609;SDS011;26316;55.976;37.140;2022-10-29T15:14:00;3.90;;;2.83;;
40609;SDS011;26316;55.976;37.140;2022-10-29T15:16:26;4.65;;;3.47;;
40609;SDS011;26316;55.976;37.140;2022-10-29T15:18:52;5.78;;;2.70;;
40609;SDS011;26316;55.976;37.140;2022-10-29T15:21:23;3.05;;;2.75;;
40609;SDS011;26316;55.976;37.140;2022-10-29T15:23:58;3.65;;;2.90;;
40609;SDS011;26316;55.976;37.140;2022-10-29T15:26:29;7.10;;;2.55;;
40609;SDS011;26316;55.976;37.140;2022-10-29T15:28:55;6.40;;;2.90;;
40609;SDS011;26316;55.976;37.140;2022-10-29T15:31:41;5.00;;;2.78;;
40609;SDS011;26316;55.976;37.140;2022-10-29T15:34:44;5.15;;;2.63;;
40609;SDS011;26316;55.976;37.140;2022-10-29T15:37:46;7.32;;;2.38;;
40609;SDS011;26316;55.976;37.140;2022-10-29T15:42:25;6.55;;;2.97;;
40609;SDS011;26316;55.976;37.140;2022-10-29T15:47:37;18.75;;;3.08;;
40609;SDS011;26316;55.976;37.140;2022-10-29T15:50:11;5.72;;;2.60;;
40609;SDS011;26316;55.976;37.140;2022-10-29T15:55:14;8.40;;;2.45;;
40609;SDS011;26316;55.976;37.140;2022-10-29T15:57:40;7.20;;;2.88;;
40609;SDS011;26316;55.976;37.140;2022-10-29T16:00:07;4.13;;;3.00;;
40609;SDS011;26316;55.976;37.140;2022-10-29T16:02:34;3.75;;;2.60;;
40609;SDS011;26316;55.976;37.140;2022-10-29T16:05:00;7.20;;;3.33;;
40609;SDS011;26316;55.976;37.140;2022-10-29T16:07:26;5.50;;;2.47;;
40609;SDS011;26316;55.976;37.140;2022-10-29T16:09:52;6.43;;;2.75;;
40609;SDS011;26316;55.976;37.140;2022-10-29T16:12:18;8.20;;;2.55;;
40609;SDS011;26316;55.976;37.140;2022-10-29T16:14:44;2.85;;;2.58;;
40609;SDS011;26316;55.976;37.140;2022-10-29T16:17:14;5.50;;;2.60;;
40609;SDS011;26316;55.976;37.140;2022-10-29T16:19:41;2.42;;;2.25;;
40609;SDS011;26316;55.976;37.140;2022-10-29T16:22:14;3.55;;;2.55;;
40609;SDS011;26316;55.976;37.140;2022-10-29T16:24:41;2.45;;;2.25;;
40609;SDS011;26316;55.976;37.140;2022-10-29T16:27:10;3.55;;;2.47;;
40609;SDS011;26316;55.976;37.140;2022-10-29T16:29:38;3.60;;;2.40;;
40609;SDS011;26316;55.976;37.140;2022-10-29T16:32:04;4.13;;;2.45;;
40609;SDS011;26316;55.976;37.140;2022-10-29T16:34:30;5.50;;;3.03;;
40609;SDS011;26316;55.976;37.140;2022-10-29T16:36:56;2.97;;;2.50;;
40609;SDS011;26316;55.976;37.140;2022-10-29T16:39:21;5.68;;;3.00;;
40609;SDS011;26316;55.976;37.140;2022-10-29T16:41:47;3.47;;;2.35;;
40609;SDS011;26316;55.976;37.140;2022-10-29T16:44:13;3.45;;;2.72;;
40609;SDS011;26316;55.976;37.140;2022-10-29T16:46:39;2.58;;;2.38;;
40609;SDS011;26316;55.976;37.140;2022-10-29T16:49:04;5.53;;;2.38;;
40609;SDS011;26316;55.976;37.140;2022-10-29T16:51:30;3.88;;;2.47;;
40609;SDS011;26316;55.976;37.140;2022-10-29T16:53:56;4.95;;;2.92;;
40609;SDS011;26316;55.976;37.140;2022-10-29T16:56:22;3.47;;;3.00;;
40609;SDS011;26316;55.976;37.140;2022-10-29T16:58:47;3.00;;;2.53;;
40609;SDS011;26316;55.976;37.140;2022-10-29T17:01:13;3.38;;;2.60;;
40609;SDS011;26316;55.976;37.140;2022-10-29T17:03:39;6.28;;;2.80;;
40609;SDS011;26316;55.976;37.140;2022-10-29T17:06:05;5.25;;;3.10;;
40609;SDS011;26316;55.976;37.140;2022-10-29T17:08:33;5.18;;;2.90;;
40609;SDS011;26316;55.976;37.140;2022-10-29T17:10:59;3.30;;;3.00;;
40609;SDS011;26316;55.976;37.140;2022-10-29T17:13:26;5.50;;;3.22;;
40609;SDS011;26316;55.976;37.140;2022-10-29T17:15:52;2.78;;;2.58;;
40609;SDS011;26316;55.976;37.140;2022-10-29T17:18:17;4.80;;;3.70;;
40609;SDS011;26316;55.976;37.140;2022-10-29T17:20:52;4.10;;;3.10;;
40609;SDS011;26316;55.976;37.140;2022-10-29T17:23:22;3.38;;;2.70;;
40609;SDS011;26316;55.976;37.140;2022-10-29T17:25:51;2.72;;;2.53;;
40609;SDS011;26316;55.976;37.140;2022-10-29T17:28:18;2.55;;;2.35;;
40609;SDS011;26316;55.976;37.140;2022-10-29T17:30:44;8.60;;;2.67;;
40609;SDS011;26316;55.976;37.140;2022-10-29T17:33:10;3.05;;;2.80;;
40609;SDS011;26316;55.976;37.140;2022-10-29T17:35:37;3.50;;;2.53;;
40609;SDS011;26316;55.976;37.140;2022-10-29T17:38:03;4.35;;;2.70;;
40609;SDS011;26316;55.976;37.140;2022-10-29T17:40:29;3.78;;;2.95;;
40609;SDS011;26316;55.976;37.140;2022-10-29T17:42:55;5.90;;;3.60;;
40609;SDS011;26316;55.976;37.140;2022-10-29T17:45:21;7.55;;;2.70;;
40609;SDS011;26316;55.976;37.140;2022-10-29T17:47:48;6.28;;;2.90;;
40609;SDS011;26316;55.976;37.140;2022-10-29T17:50:18;3.65;;;2.63;;
40609;SDS011;26316;55.976;37.140;2022-10-29T17:52:43;4.18;;;2.33;;
40609;SDS011;26316;55.976;37.140;2022-10-29T17:55:09;3.20;;;2.90;;
40609;SDS011;26316;55.976;37.140;2022-10-29T17:57:35;5.13;;;2.60;;
40609;SDS011;26316;55.976;37.140;2022-10-29T18:00:01;2.78;;;2.58;;
40609;SDS011;26316;55.976;37.140;2022-10-29T18:02:30;4.50;;;2.88;;